Time;durP1;ratioP1;P1;durP2;ratioP2;P2;SDS_P1;SDS_P2;PMS_P1;PMS_P2;Temp;Humidity;BMP_temperature;BMP_pressure;BME280_temperature;BME280_humidity;BME280_pressure;Samples;Min_cycle;Max_cycle;Signal;HPM_P1;HPM_P2
2021/03/09 00:00:14;;;;;;;21.27;11.65;;;;;;;-4.40;74.56;97069.89;1684207;85;21156;-80
2021/03/09 00:02:42;;;;;;;22.15;12.40;;;;;;;-4.48;74.68;97069.96;1677480;85;21496;-80
2021/03/09 00:05:11;;;;;;;24.90;13.68;;;;;;;-4.56;74.60;97077.77;1681795;84;21515;-80
2021/03/09 00:07:38;;;;;;;22.85;13.05;;;;;;;-4.59;74.68;97080.70;1680170;85;21166;-80
2021/03/09 00:10:08;;;;;;;25.57;11.68;;;;;;;-4.61;74.76;97071.02;1683593;84;21570;-80
2021/03/09 00:12:35;;;;;;;19.87;11.80;;;;;;;-4.62;74.81;97075.38;1678942;84;21143;-80
2021/03/09 00:15:04;;;;;;;25.45;11.78;;;;;;;-4.68;74.65;97077.83;1668797;85;21581;-80
2021/03/09 00:17:32;;;;;;;18.20;8.33;;;;;;;-4.72;74.86;97076.58;1680444;84;21156;-80
2021/03/09 00:20:01;;;;;;;23.18;10.63;;;;;;;-4.70;75.20;97074.62;1669136;85;21152;-80
2021/03/09 00:22:28;;;;;;;21.10;11.43;;;;;;;-4.73;74.94;97078.84;1674033;84;21218;-80
2021/03/09 00:24:55;;;;;;;23.10;11.80;;;;;;;-4.73;75.06;97076.26;1671291;85;21509;-80
2021/03/09 00:27:22;;;;;;;17.15;8.68;;;;;;;-4.72;74.98;97080.45;1687335;84;21135;-80
2021/03/09 00:29:49;;;;;;;19.27;9.20;;;;;;;-4.79;74.83;97081.11;1697752;84;21158;-80
2021/03/09 00:32:16;;;;;;;20.60;9.93;;;;;;;-4.89;74.66;97077.95;1681274;84;21147;-80
2021/03/09 00:34:43;;;;;;;30.65;12.30;;;;;;;-5.00;74.69;97070.58;1716712;81;21142;-80
2021/03/09 00:37:10;;;;;;;22.55;11.55;;;;;;;-5.12;74.76;97070.14;1730805;81;21263;-80
2021/03/09 00:39:37;;;;;;;28.60;12.00;;;;;;;-5.17;74.97;97078.09;1724862;81;21162;-80
2021/03/09 00:42:05;;;;;;;25.57;12.33;;;;;;;-5.25;74.96;97074.23;1728819;81;21656;-80
2021/03/09 00:44:31;;;;;;;22.27;10.70;;;;;;;-5.27;75.15;97070.53;1728271;83;21144;-80
2021/03/09 00:46:58;;;;;;;24.00;11.57;;;;;;;-5.25;75.06;97068.58;1734019;81;21572;-80
2021/03/09 00:49:25;;;;;;;19.67;10.35;;;;;;;-5.25;75.04;97070.35;1708858;83;21281;-80
2021/03/09 00:51:53;;;;;;;13.32;7.00;;;;;;;-5.23;75.25;97066.63;1727483;81;21117;-80
2021/03/09 00:54:20;;;;;;;26.23;12.00;;;;;;;-5.22;75.52;97067.43;1733477;82;21477;-80
2021/03/09 00:56:47;;;;;;;23.55;12.80;;;;;;;-5.21;75.37;97065.16;1741978;82;21187;-80
2021/03/09 00:59:14;;;;;;;26.12;11.95;;;;;;;-5.23;75.34;97069.20;1729580;82;21249;-80
2021/03/09 01:01:41;;;;;;;21.70;11.70;;;;;;;-5.23;75.29;97073.09;1733593;81;21146;-80
2021/03/09 01:04:08;;;;;;;22.93;10.85;;;;;;;-5.24;75.33;97066.80;1718652;82;21678;-80
2021/03/09 01:06:35;;;;;;;22.57;11.13;;;;;;;-5.26;75.34;97063.58;1727077;81;21628;-80
2021/03/09 01:09:03;;;;;;;27.05;12.58;;;;;;;-5.26;75.68;97063.09;1741214;82;21258;-80
2021/03/09 01:11:30;;;;;;;23.37;11.43;;;;;;;-5.25;75.42;97068.58;1730114;82;21316;-80
2021/03/09 01:13:57;;;;;;;18.52;8.73;;;;;;;-5.26;75.33;97063.09;1724289;82;21281;-80
2021/03/09 01:16:24;;;;;;;20.37;10.08;;;;;;;-5.25;75.30;97067.28;1721242;83;21098;-80
2021/03/09 01:18:51;;;;;;;18.30;9.20;;;;;;;-5.23;75.48;97057.58;1698968;84;21168;-80
2021/03/09 01:21:18;;;;;;;20.00;10.33;;;;;;;-5.22;75.52;97059.19;1705501;82;21197;-80
2021/03/09 01:23:45;;;;;;;16.03;9.37;;;;;;;-5.23;75.49;97061.45;1677110;84;21124;-80
2021/03/09 01:26:12;;;;;;;19.47;10.03;;;;;;;-5.28;75.37;97057.77;1684373;84;21515;-80
2021/03/09 01:28:39;;;;;;;17.17;9.03;;;;;;;-5.31;75.33;97052.95;1724354;82;21491;-80
2021/03/09 01:31:06;;;;;;;17.50;8.05;;;;;;;-5.32;75.28;97050.05;1705570;83;21207;-80
2021/03/09 01:33:33;;;;;;;20.83;10.27;;;;;;;-5.33;75.43;97053.61;1694078;84;21181;-80
2021/03/09 01:36:00;;;;;;;22.50;9.43;;;;;;;-5.34;75.28;97054.58;1677136;84;21147;-80
2021/03/09 01:38:27;;;;;;;17.43;9.67;;;;;;;-5.35;75.20;97052.94;1696886;84;21190;-80
2021/03/09 01:40:55;;;;;;;19.10;10.70;;;;;;;-5.38;75.13;97043.75;1685626;84;21526;-80
2021/03/09 01:43:22;;;;;;;17.50;9.60;;;;;;;-5.38;75.25;97053.60;1707153;83;21161;-80
2021/03/09 01:45:49;;;;;;;23.90;9.80;;;;;;;-5.38;75.29;97051.50;1697381;84;21626;-80
2021/03/09 01:48:21;;;;;;;15.15;8.23;;;;;;;-5.38;75.15;97051.02;1756170;81;21518;-80
2021/03/09 01:50:50;;;;;;;21.62;9.43;;;;;;;-5.41;75.10;97050.06;1742768;81;21515;-80
2021/03/09 01:53:17;;;;;;;18.20;8.83;;;;;;;-5.40;75.06;97044.41;1737638;81;21118;-80
2021/03/09 01:55:44;;;;;;;14.60;8.75;;;;;;;-5.43;75.01;97044.75;1712367;81;21134;-80
2021/03/09 01:58:12;;;;;;;17.45;8.70;;;;;;;-5.49;75.10;97048.82;1707681;83;21159;-80
2021/03/09 02:00:41;;;;;;;17.57;8.50;;;;;;;-5.48;75.04;97048.33;1679534;84;21165;-80
2021/03/09 02:03:09;;;;;;;24.07;8.80;;;;;;;-5.49;74.97;97047.98;1681275;85;21139;-80
2021/03/09 02:05:37;;;;;;;19.85;9.63;;;;;;;-5.49;74.90;97050.56;1684974;84;21121;-80
2021/03/09 02:08:05;;;;;;;13.53;6.60;;;;;;;-5.48;74.88;97045.27;1678467;85;21128;-80
2021/03/09 02:10:33;;;;;;;22.37;10.20;;;;;;;-5.48;74.74;97040.09;1692799;84;21511;-80
2021/03/09 02:13:14;;;;;;;21.10;10.03;;;;;;;-5.50;74.96;97042.02;1671076;85;21150;-80
2021/03/09 02:16:12;;;;;;;18.52;10.10;;;;;;;-5.50;75.03;97039.92;1680198;85;21502;-80
2021/03/09 02:18:50;;;;;;;16.13;8.43;;;;;;;-5.54;75.11;97046.39;1683662;84;21139;-80
2021/03/09 02:21:44;;;;;;;15.40;8.10;;;;;;;-5.57;74.96;97044.95;1674932;85;21210;-79
2021/03/09 02:24:42;;;;;;;15.63;8.97;;;;;;;-5.58;74.87;97043.84;1674756;85;21160;-80
2021/03/09 02:27:21;;;;;;;17.73;8.90;;;;;;;-5.57;74.89;97048.83;1683496;85;21222;-80
2021/03/09 02:30:14;;;;;;;18.53;8.70;;;;;;;-5.57;74.79;97042.86;1677526;84;21148;-81
2021/03/09 02:33:04;;;;;;;14.00;7.95;;;;;;;-5.63;74.67;97041.77;1672777;84;21551;-80
2021/03/09 02:35:32;;;;;;;14.78;7.03;;;;;;;-5.64;74.60;97043.99;1715890;81;21191;-80
2021/03/09 02:38:03;;;;;;;14.70;7.85;;;;;;;-5.62;74.74;97047.24;1726227;81;21176;-80
2021/03/09 02:40:34;;;;;;;14.10;7.47;;;;;;;-5.61;74.74;97039.81;1726056;81;21127;-80
2021/03/09 02:43:09;;;;;;;19.75;8.38;;;;;;;-5.58;74.65;97051.58;1724624;81;21141;-80
2021/03/09 02:45:38;;;;;;;15.30;7.22;;;;;;;-5.58;74.64;97045.93;1734594;81;21143;-80
2021/03/09 02:48:08;;;;;;;13.88;6.65;;;;;;;-5.57;74.61;97046.25;1726055;82;21151;-80
2021/03/09 02:50:35;;;;;;;;;;;;;;;-5.56;74.62;97045.28;1705735;83;21292;-80
2021/03/09 02:53:08;;;;;;;13.83;6.67;;;;;;;-5.56;74.63;97049.15;1726027;81;20117;-80
2021/03/09 02:55:38;;;;;;;15.45;7.15;;;;;;;-5.59;74.62;97046.91;1737914;82;21140;-80
2021/03/09 02:58:08;;;;;;;13.48;6.58;;;;;;;-5.56;74.71;97043.98;1732034;81;21911;-80
2021/03/09 03:00:38;;;;;;;13.70;7.20;;;;;;;-5.55;74.63;97048.17;1723492;81;21126;-80
2021/03/09 03:03:09;;;;;;;17.97;8.07;;;;;;;-5.56;74.61;97049.15;1722183;82;21168;-80
2021/03/09 03:05:37;;;;;;;15.55;7.92;;;;;;;-5.55;74.51;97049.95;1734884;81;21594;-80
2021/03/09 03:08:08;;;;;;;15.23;8.38;;;;;;;-5.56;74.57;97051.73;1699020;83;21141;-80
2021/03/09 03:10:43;;;;;;;14.50;6.85;;;;;;;-5.56;74.54;97049.15;1718812;83;21132;-80
2021/03/09 03:13:13;;;;;;;12.28;5.97;;;;;;;-5.55;74.53;97049.95;1720549;82;21072;-80
2021/03/09 03:15:42;;;;;;;14.33;7.10;;;;;;;-5.57;74.59;97046.73;1741920;82;21181;-80
2021/03/09 03:18:16;;;;;;;12.47;6.37;;;;;;;-5.52;74.73;97051.71;1691035;83;21109;-80
2021/03/09 03:20:45;;;;;;;16.83;7.80;;;;;;;-5.50;74.65;97046.38;1689163;84;21173;-80
2021/03/09 03:23:14;;;;;;;13.70;6.70;;;;;;;-5.53;74.42;97048.81;1696585;83;21525;-80
2021/03/09 03:25:46;;;;;;;10.87;6.27;;;;;;;-5.57;74.29;97050.61;1718904;83;21159;-80
2021/03/09 03:28:15;;;;;;;12.78;6.78;;;;;;;-5.61;74.39;97051.92;1717831;82;21507;-80
2021/03/09 03:30:42;;;;;;;17.37;7.43;;;;;;;-5.68;74.21;97051.76;1707459;82;21113;-80
2021/03/09 03:33:10;;;;;;;10.90;5.83;;;;;;;-5.70;74.22;97053.22;1729754;82;21166;-80
2021/03/09 03:35:37;;;;;;;15.03;6.12;;;;;;;-5.66;74.31;97048.52;1671626;84;21144;-80
2021/03/09 03:38:06;;;;;;;14.45;5.90;;;;;;;-5.62;74.34;97061.45;1701051;83;21153;-80
2021/03/09 03:40:33;;;;;;;15.38;6.90;;;;;;;-5.58;74.15;97054.16;1760333;81;21642;-80
2021/03/09 03:43:00;;;;;;;12.73;6.23;;;;;;;-5.60;74.08;97053.53;1755550;81;21143;-80
2021/03/09 03:45:27;;;;;;;13.70;6.25;;;;;;;-5.60;74.04;97050.46;1758224;81;21497;-80
2021/03/09 03:47:58;;;;;;;12.95;6.00;;;;;;;-5.61;74.06;97044.98;1764528;81;21167;-80
2021/03/09 03:50:27;;;;;;;13.57;6.57;;;;;;;-5.56;74.03;97049.15;1763431;81;21470;-80
2021/03/09 03:53:23;;;;;;;14.93;7.00;;;;;;;-5.53;74.01;97045.42;1756469;80;21669;-80
2021/03/09 03:56:23;;;;;;;11.83;5.62;;;;;;;-5.52;73.90;97048.33;1757513;81;21156;-79
2021/03/09 03:59:11;;;;;;;13.55;6.55;;;;;;;-5.54;73.86;97043.33;1732789;81;21152;-79
2021/03/09 04:01:40;;;;;;;12.58;6.05;;;;;;;-5.52;73.89;97049.61;1760398;80;21189;-80
2021/03/09 04:04:12;;;;;;;11.83;5.40;;;;;;;-5.55;73.77;97048.17;1748805;81;21183;-80
2021/03/09 04:06:53;;;;;;;12.25;5.42;;;;;;;-5.54;73.70;97051.56;1757558;81;21527;-80
2021/03/09 04:09:23;;;;;;;13.25;5.50;;;;;;;-5.57;73.65;97038.98;1752326;81;21091;-80
2021/03/09 04:11:52;;;;;;;14.35;6.60;;;;;;;-5.56;73.69;97049.15;1756930;80;21142;-80
2021/03/09 04:14:21;;;;;;;12.50;5.53;;;;;;;-5.55;73.60;97048.17;1759682;81;21496;-80
2021/03/09 04:16:51;;;;;;;9.83;5.30;;;;;;;-5.58;73.46;97049.00;1753529;81;21140;-80
2021/03/09 04:19:20;;;;;;;10.35;5.35;;;;;;;-5.58;73.52;97043.34;1758672;81;21127;-79
2021/03/09 04:21:48;;;;;;;8.40;4.78;;;;;;;-5.63;73.43;97050.80;1756288;81;21174;-79
2021/03/09 04:24:17;;;;;;;17.45;6.45;;;;;;;-5.66;73.36;97051.11;1738201;81;21092;-80
2021/03/09 04:26:47;;;;;;;14.28;6.05;;;;;;;-5.69;73.33;97056.61;1752821;81;21147;-80
2021/03/09 04:29:16;;;;;;;14.43;6.28;;;;;;;-5.77;73.43;97047.12;1756749;81;21131;-79
2021/03/09 04:31:44;;;;;;;23.50;8.55;;;;;;;-5.83;73.28;97049.53;1753744;81;21579;-80
2021/03/09 04:34:13;;;;;;;10.23;6.13;;;;;;;-5.85;73.41;97050.19;1725531;82;21477;-79
2021/03/09 04:36:43;;;;;;;15.40;6.27;;;;;;;-5.87;73.53;97048.27;1684233;84;21162;-80
2021/03/09 04:39:11;;;;;;;15.03;7.37;;;;;;;-5.86;73.70;97051.16;1708247;84;21172;-80
2021/03/09 04:41:41;;;;;;;12.73;7.35;;;;;;;-5.91;73.74;97049.57;1727118;83;21142;-80
2021/03/09 04:44:09;;;;;;;18.23;8.10;;;;;;;-6.03;73.67;97051.22;1701710;84;21149;-80
2021/03/09 04:46:36;;;;;;;15.88;7.50;;;;;;;-6.11;73.70;97052.99;1729976;83;21130;-80
2021/03/09 04:49:05;;;;;;;14.63;6.90;;;;;;;-6.11;73.84;97050.41;1700297;84;21149;-79
2021/03/09 04:51:36;;;;;;;15.25;7.10;;;;;;;-6.09;73.80;97046.70;1759124;80;21139;-79
2021/03/09 04:54:04;;;;;;;15.67;6.53;;;;;;;-6.09;73.71;97051.05;1760295;81;21103;-79
2021/03/09 04:56:33;;;;;;;17.60;7.55;;;;;;;-6.13;73.68;97054.45;1766321;81;21523;-80
2021/03/09 04:59:00;;;;;;;11.60;7.10;;;;;;;-6.14;73.68;97052.84;1742430;81;21092;-80
2021/03/09 05:01:27;;;;;;;15.32;6.80;;;;;;;-6.15;73.73;97047.84;1725384;81;21109;-79
2021/03/09 05:03:54;;;;;;;13.72;6.47;;;;;;;-6.21;73.62;97049.77;1709322;84;21526;-80
2021/03/09 05:06:21;;;;;;;13.88;6.85;;;;;;;-6.21;73.68;97047.19;1705757;83;21120;-80
2021/03/09 05:08:48;;;;;;;16.20;6.28;;;;;;;-6.17;73.75;97052.37;1700648;84;21105;-80
2021/03/09 05:11:15;;;;;;;11.83;5.85;;;;;;;-6.15;73.72;97050.42;1700097;83;21563;-79
2021/03/09 05:13:42;;;;;;;12.00;5.13;;;;;;;-6.17;73.58;97059.63;1701670;84;21183;-79
2021/03/09 05:16:10;;;;;;;12.37;5.83;;;;;;;-6.15;73.56;97056.39;1730236;83;21154;-80
2021/03/09 05:18:37;;;;;;;11.70;6.17;;;;;;;-6.15;73.37;97058.16;1702113;84;21126;-80
2021/03/09 05:21:04;;;;;;;9.25;6.17;;;;;;;-6.15;73.37;97064.62;1708213;82;21123;-79
2021/03/09 05:23:31;;;;;;;14.83;6.72;;;;;;;-6.10;73.59;97067.02;1726102;83;21183;-80
2021/03/09 05:25:58;;;;;;;13.13;6.80;;;;;;;-5.93;73.43;97061.84;1703517;84;21134;-80
2021/03/09 05:28:25;;;;;;;16.75;8.43;;;;;;;-5.86;73.27;97061.49;1714844;82;21149;-80
2021/03/09 05:30:53;;;;;;;16.62;8.05;;;;;;;-5.68;73.54;97064.67;1682368;84;21518;-80
2021/03/09 05:33:19;;;;;;;23.32;11.57;;;;;;;-5.23;73.43;97065.33;1709074;82;21133;-80
2021/03/09 05:35:47;;;;;;;29.12;14.18;;;;;;;-4.75;73.36;97056.23;1721690;81;21117;-80
2021/03/09 05:38:14;;;;;;;24.30;11.18;;;;;;;-4.10;73.04;97051.86;1753631;81;21126;-80
2021/03/09 05:40:41;;;;;;;20.20;10.23;;;;;;;-3.51;72.49;97061.84;1767265;81;21136;-80
2021/03/09 05:43:10;;;;;;;19.48;9.53;;;;;;;-3.02;71.52;97059.96;1765760;80;21092;-80
2021/03/09 05:45:38;;;;;;;20.00;8.60;;;;;;;-2.48;71.16;97056.47;1722650;83;21119;-80
2021/03/09 05:48:07;;;;;;;19.07;8.18;;;;;;;-1.91;70.63;97058.66;1700258;84;21208;-80
2021/03/09 05:50:34;;;;;;;15.98;8.28;;;;;;;-1.49;69.60;97059.05;1709324;84;21151;-80
2021/03/09 05:53:01;;;;;;;13.98;7.42;;;;;;;-1.24;69.01;97056.80;1763681;80;21178;-80
2021/03/09 05:55:28;;;;;;;15.10;7.55;;;;;;;-1.05;68.11;97056.08;1767734;81;21136;-80
2021/03/09 05:57:57;;;;;;;14.33;7.47;;;;;;;-0.64;67.92;97057.84;1768286;81;21129;-80
2021/03/09 06:00:25;;;;;;;16.57;7.65;;;;;;;-0.37;67.25;97046.98;1702636;83;21125;-80
2021/03/09 06:02:52;;;;;;;12.58;7.22;;;;;;;0.01;67.08;97051.63;1713135;82;21968;-80
2021/03/09 06:05:21;;;;;;;16.77;8.83;;;;;;;0.50;66.65;97053.29;1698528;84;21143;-80
2021/03/09 06:07:52;;;;;;;13.22;7.85;;;;;;;0.99;66.10;97057.20;1714083;84;21127;-80
2021/03/09 06:10:25;;;;;;;12.80;6.92;;;;;;;1.52;64.98;97063.47;1726190;83;21110;-80
2021/03/09 06:12:52;;;;;;;12.80;6.90;;;;;;;1.85;63.92;97059.37;1714150;82;21539;-78
2021/03/09 06:15:20;;;;;;;12.30;7.05;;;;;;;2.06;61.59;97059.51;1734270;83;21474;-78
2021/03/09 06:18:00;;;;;;;15.03;7.75;;;;;;;1.85;60.90;97067.21;1713120;84;21174;-78
2021/03/09 06:20:30;;;;;;;11.83;7.42;;;;;;;1.74;60.65;97062.14;1734283;83;21102;-80
2021/03/09 06:23:00;;;;;;;13.10;6.97;;;;;;;1.78;60.01;97069.84;1707824;84;21157;-80
2021/03/09 06:25:38;;;;;;;13.53;7.47;;;;;;;2.45;60.08;97069.36;1714544;84;21506;-80
2021/03/09 06:28:10;;;;;;;14.70;7.87;;;;;;;2.61;58.69;97079.27;1715727;84;21170;-80
2021/03/09 06:30:40;;;;;;;12.05;7.40;;;;;;;2.95;58.47;97074.78;1701053;83;21125;-80
2021/03/09 06:33:09;;;;;;;14.43;7.30;;;;;;;3.43;57.87;97076.66;1732747;81;21214;-80
2021/03/09 06:35:45;;;;;;;14.87;8.50;;;;;;;3.68;56.32;97083.61;1722066;81;21125;-80
2021/03/09 06:38:30;;;;;;;14.23;7.72;;;;;;;3.81;56.05;97076.88;1724511;83;21125;-80
2021/03/09 06:41:15;;;;;;;12.50;6.60;;;;;;;4.14;54.24;97081.11;1718935;82;21569;-80
2021/03/09 06:44:02;;;;;;;11.70;7.03;;;;;;;4.38;54.28;97088.52;1706644;84;21163;-80
2021/03/09 06:46:30;;;;;;;13.38;7.12;;;;;;;4.67;53.31;97091.27;1701775;84;21155;-80
2021/03/09 06:49:04;;;;;;;14.15;8.10;;;;;;;4.80;52.59;97088.42;1730380;83;21138;-80
2021/03/09 06:51:38;;;;;;;15.98;9.00;;;;;;;4.98;51.04;97098.79;1707425;82;21170;-80
2021/03/09 06:54:08;;;;;;;14.78;8.35;;;;;;;4.83;50.54;97098.98;1726636;83;21174;-80
2021/03/09 06:56:44;;;;;;;11.45;6.53;;;;;;;4.77;49.90;97106.72;1708445;84;21135;-80
2021/03/09 06:59:31;;;;;;;13.38;8.05;;;;;;;5.03;50.24;97108.09;1753770;81;21108;-80
2021/03/09 07:02:16;;;;;;;15.13;7.83;;;;;;;5.21;49.06;97111.11;1729646;81;21515;-80
2021/03/09 07:04:52;;;;;;;12.60;7.92;;;;;;;5.52;48.96;97108.58;1710417;84;21103;-81
2021/03/09 07:07:38;;;;;;;11.95;7.15;;;;;;;5.65;49.48;97105.67;1727076;83;21130;-81
2021/03/09 07:10:15;;;;;;;11.95;7.65;;;;;;;6.36;48.07;97107.48;1704481;84;21621;-81
2021/03/09 07:12:46;;;;;;;15.03;8.53;;;;;;;6.79;48.09;97108.66;1719394;83;21512;-81
2021/03/09 07:15:17;;;;;;;13.90;8.33;;;;;;;7.09;47.63;97106.45;1707670;84;21566;-81
2021/03/09 07:17:50;;;;;;;13.68;7.47;;;;;;;6.79;46.63;97111.30;1729994;83;21153;-81
2021/03/09 07:20:18;;;;;;;14.28;8.13;;;;;;;6.88;46.70;97111.67;1707515;84;21139;-81
2021/03/09 07:22:46;;;;;;;15.00;8.40;;;;;;;6.45;44.89;97115.77;1724819;81;21137;-81
2021/03/09 07:25:16;;;;;;;12.47;7.00;;;;;;;6.39;45.16;97112.78;1695544;84;21572;-81
2021/03/09 07:28:07;;;;;;;12.03;7.63;;;;;;;5.65;44.98;97119.34;1695867;84;21461;-81
2021/03/09 07:30:39;;;;;;;11.25;7.03;;;;;;;5.30;44.40;97115.48;1735238;81;21115;-81
2021/03/09 07:33:07;;;;;;;12.07;6.60;;;;;;;5.13;44.85;97115.39;1702457;82;21241;-81
2021/03/09 07:35:35;;;;;;;10.80;6.33;;;;;;;6.19;46.23;97115.86;1719397;81;21550;-81
2021/03/09 07:38:03;;;;;;;13.65;7.25;;;;;;;6.90;44.96;97109.09;1703230;83;21118;-81
2021/03/09 07:40:35;;;;;;;12.28;7.17;;;;;;;6.10;44.10;97116.78;1710700;84;21137;-81
2021/03/09 07:43:03;;;;;;;10.23;6.42;;;;;;;5.35;43.97;97113.77;1707039;82;21177;-81
2021/03/09 07:45:37;;;;;;;12.73;7.15;;;;;;;4.63;44.17;97115.86;1691500;83;21112;-81
2021/03/09 07:48:11;;;;;;;12.63;6.53;;;;;;;4.17;45.53;97107.41;1675338;85;21149;-81
2021/03/09 07:50:43;;;;;;;11.90;6.90;;;;;;;4.26;46.38;97109.20;1699970;84;21468;-81
2021/03/09 07:53:21;;;;;;;13.22;7.40;;;;;;;4.57;45.62;97114.15;1696926;82;21143;-81
2021/03/09 07:56:02;;;;;;;13.10;7.08;;;;;;;4.71;46.31;97109.48;1731459;83;21136;-81
2021/03/09 07:58:29;;;;;;;12.18;6.53;;;;;;;4.24;45.37;97111.26;1701066;84;21152;-80
2021/03/09 08:01:08;;;;;;;12.15;6.40;;;;;;;3.54;46.35;97117.86;1700405;82;21163;-80
2021/03/09 08:03:41;;;;;;;12.30;6.40;;;;;;;3.15;46.74;97114.38;1750215;81;21091;-81
2021/03/09 08:06:15;;;;;;;11.48;6.45;;;;;;;2.79;47.28;97113.32;1767823;81;21179;-81
2021/03/09 08:08:56;;;;;;;11.08;6.30;;;;;;;2.68;47.28;97110.13;1767863;81;21123;-81
2021/03/09 08:11:29;;;;;;;15.23;7.40;;;;;;;2.65;47.61;97115.26;1764984;80;21186;-80
2021/03/09 08:14:10;;;;;;;10.98;7.42;;;;;;;2.44;47.88;97113.55;1767848;81;21121;-80
2021/03/09 08:16:40;;;;;;;12.90;6.90;;;;;;;2.27;48.21;97109.36;1767762;81;21131;-80
2021/03/09 08:19:15;;;;;;;13.78;7.85;;;;;;;2.05;48.41;97108.90;1767943;81;21178;-80
2021/03/09 08:22:01;;;;;;;13.58;7.60;;;;;;;1.84;48.72;97113.17;1757643;80;21130;-80
2021/03/09 08:24:46;;;;;;;17.05;7.60;;;;;;;1.64;49.41;97104.91;1731463;83;21438;-81
2021/03/09 08:27:32;;;;;;;13.00;7.90;;;;;;;1.63;49.33;97103.82;1710546;84;21507;-81
2021/03/09 08:30:25;;;;;;;18.23;10.18;;;;;;;1.64;49.92;97105.42;1731281;83;21144;-81
2021/03/09 08:32:53;;;;;;;15.35;8.78;;;;;;;1.89;50.11;97101.56;1701748;83;21194;-81
2021/03/09 08:35:32;;;;;;;14.78;8.23;;;;;;;1.99;49.98;97101.41;1701400;82;21158;-81
2021/03/09 08:38:12;;;;;;;17.35;9.43;;;;;;;2.79;51.21;97100.23;1758763;81;21488;-81
2021/03/09 08:41:01;;;;;;;17.32;9.50;;;;;;;4.94;49.59;97095.03;1764435;81;21536;-81
2021/03/09 08:43:28;;;;;;;15.65;9.63;;;;;;;6.40;48.72;97090.16;1755266;81;21586;-81
2021/03/09 08:46:02;;;;;;;20.90;12.28;;;;;;;6.07;45.60;97088.82;1759952;81;21162;-81
2021/03/09 08:48:48;;;;;;;31.68;18.07;;;;;;;5.50;46.16;97087.49;1769365;81;21112;-81
2021/03/09 08:51:45;;;;;;;19.07;10.82;;;;;;;5.69;45.88;97092.05;1762548;80;21224;-81
2021/03/09 08:54:46;;;;;;;22.45;11.10;;;;;;;5.74;46.45;97089.50;1757911;81;21147;-81
2021/03/09 08:57:22;;;;;;;17.70;9.18;;;;;;;6.10;47.05;97085.71;1755068;81;21488;-81
2021/03/09 08:59:56;;;;;;;23.32;11.85;;;;;;;6.80;46.45;97083.91;1755245;81;22142;-81
2021/03/09 09:02:26;;;;;;;22.65;11.22;;;;;;;7.47;45.81;97082.93;1768221;81;21142;-81
2021/03/09 09:05:01;;;;;;;18.60;9.55;;;;;;;7.63;45.36;97078.09;1733957;81;21629;-81
2021/03/09 09:07:43;;;;;;;22.50;11.22;;;;;;;7.84;44.68;97076.45;1739674;81;21293;-81
2021/03/09 09:10:22;;;;;;;12.73;7.97;;;;;;;7.56;44.23;97079.59;1713384;83;21151;-81
2021/03/09 09:12:52;;;;;;;17.20;8.08;;;;;;;6.85;42.35;97077.38;1721214;83;21161;-81
2021/03/09 09:15:28;;;;;;;;;;;;;;;6.46;43.53;97086.55;1702781;84;21100;-81
2021/03/09 09:18:02;;;;;;;15.08;8.70;;;;;;;6.55;43.81;97073.27;1700413;84;20225;-81
2021/03/09 09:20:43;;;;;;;14.65;8.83;;;;;;;6.52;44.57;97077.70;1695960;84;21113;-80
2021/03/09 09:23:21;;;;;;;16.67;9.35;;;;;;;6.39;44.30;97079.34;1712474;81;21532;-81
2021/03/09 09:25:52;;;;;;;17.37;10.00;;;;;;;5.85;44.57;97082.87;1691903;83;21172;-81
2021/03/09 09:28:38;;;;;;;19.85;11.63;;;;;;;4.99;43.33;97078.57;1720654;81;21281;-80
2021/03/09 09:31:19;;;;;;;20.70;11.10;;;;;;;3.92;44.85;97079.22;1699447;83;21163;-81
2021/03/09 09:33:55;;;;;;;14.30;8.08;;;;;;;3.60;46.64;97079.97;1695619;84;21480;-81
2021/03/09 09:36:25;;;;;;;11.53;6.22;;;;;;;3.84;47.28;97082.98;1717760;81;21265;-81
2021/03/09 09:38:56;;;;;;;13.50;6.83;;;;;;;3.87;45.64;97082.52;1695421;84;21465;-81
2021/03/09 09:41:24;;;;;;;13.30;7.30;;;;;;;3.74;46.46;97082.70;1700681;83;21163;-81
2021/03/09 09:43:54;;;;;;;13.25;6.75;;;;;;;3.99;47.15;97084.67;1693447;83;21155;-81
2021/03/09 09:46:30;;;;;;;11.73;7.05;;;;;;;4.18;46.01;97086.19;1707695;84;21136;-81
2021/03/09 09:48:58;;;;;;;13.22;7.20;;;;;;;4.16;46.90;97082.20;1707323;84;21569;-79
2021/03/09 09:51:27;;;;;;;11.95;6.00;;;;;;;3.64;46.92;97083.23;1706651;84;21139;-79
2021/03/09 09:53:55;;;;;;;8.70;5.25;;;;;;;3.36;47.41;97079.06;1708280;84;21460;-79
2021/03/09 09:56:25;;;;;;;9.45;5.60;;;;;;;3.17;46.73;97084.32;1699143;84;21148;-79
2021/03/09 09:59:00;;;;;;;12.45;5.33;;;;;;;2.83;47.23;97087.53;1724585;82;21155;-81
2021/03/09 10:01:39;;;;;;;10.30;5.10;;;;;;;2.56;46.18;97086.47;1714309;82;21303;-81
2021/03/09 10:04:11;;;;;;;7.87;5.22;;;;;;;2.09;45.92;97082.61;1722764;81;21285;-81
2021/03/09 10:06:48;;;;;;;8.08;5.00;;;;;;;1.83;46.76;97077.56;1696698;84;21505;-81
2021/03/09 10:09:25;;;;;;;7.95;4.28;;;;;;;2.09;47.22;97081.30;1733299;82;21179;-81
2021/03/09 10:11:58;;;;;;;8.78;5.15;;;;;;;2.40;46.84;97075.24;1684344;83;21143;-81
2021/03/09 10:14:29;;;;;;;10.08;5.30;;;;;;;2.74;47.73;97071.30;1680633;84;21154;-81
2021/03/09 10:16:56;;;;;;;;;;;;;;;3.21;47.07;97065.83;1725808;83;21610;-81
2021/03/09 10:19:37;;;;;;;9.55;4.78;;;;;;;3.86;47.09;97065.19;1701024;83;20135;-81
2021/03/09 10:22:20;;;;;;;10.25;4.80;;;;;;;4.47;46.58;97062.71;1718272;81;21138;-81
2021/03/09 10:24:47;;;;;;;6.90;4.47;;;;;;;5.05;47.18;97059.23;1694905;84;21211;-79
2021/03/09 10:27:19;;;;;;;7.97;4.70;;;;;;;5.36;46.32;97055.41;1733849;82;21189;-79
2021/03/09 10:29:48;;;;;;;8.53;4.62;;;;;;;5.67;46.10;97052.83;1734422;81;21166;-79
2021/03/09 10:32:18;;;;;;;8.60;5.35;;;;;;;5.74;44.64;97045.58;1694479;83;21151;-79
2021/03/09 10:34:54;;;;;;;10.40;4.90;;;;;;;5.81;44.63;97042.30;1734148;82;21662;-79
2021/03/09 10:37:38;;;;;;;8.05;4.37;;;;;;;5.95;44.69;97037.56;1680457;84;21247;-80
2021/03/09 10:40:11;;;;;;;8.68;4.97;;;;;;;6.29;44.12;97036.25;1669051;85;21166;-81
2021/03/09 10:42:49;;;;;;;7.72;3.90;;;;;;;6.35;44.44;97040.05;1748112;81;21159;-81
2021/03/09 10:45:26;;;;;;;7.37;3.98;;;;;;;6.20;41.58;97041.93;1757928;81;21495;-81
2021/03/09 10:47:59;;;;;;;7.62;4.17;;;;;;;5.33;39.79;97041.40;1759643;81;21143;-81
2021/03/09 10:50:30;;;;;;;8.30;4.25;;;;;;;4.29;39.87;97042.63;1727886;82;21189;-81
2021/03/09 10:52:59;;;;;;;6.33;4.20;;;;;;;3.80;40.67;97039.84;1736673;81;21106;-81
2021/03/09 10:55:27;;;;;;;7.90;4.30;;;;;;;3.44;41.05;97042.88;1745475;81;21145;-81
2021/03/09 10:57:54;;;;;;;7.05;3.87;;;;;;;3.31;42.34;97027.84;1756343;81;21142;-81
2021/03/09 11:00:22;;;;;;;9.63;5.40;;;;;;;3.58;42.16;97040.36;1759533;81;21155;-81
2021/03/09 11:02:50;;;;;;;7.28;3.98;;;;;;;3.41;41.78;97043.33;1741955;81;21126;-81
2021/03/09 11:05:17;;;;;;;7.30;4.90;;;;;;;3.30;42.28;97030.16;1741996;81;21141;-81
2021/03/09 11:07:45;;;;;;;9.58;5.35;;;;;;;2.80;42.12;97044.73;1749687;81;21488;-81
2021/03/09 11:10:14;;;;;;;8.80;5.40;;;;;;;2.28;42.99;97045.05;1750059;81;21506;-81
2021/03/09 11:12:41;;;;;;;7.97;5.15;;;;;;;1.94;43.43;97046.31;1722332;82;21174;-81
2021/03/09 11:15:10;;;;;;;12.37;6.12;;;;;;;1.67;43.97;97041.77;1756321;81;21267;-81
2021/03/09 11:17:38;;;;;;;11.93;5.47;;;;;;;1.54;44.01;97046.27;1729838;81;21147;-81
2021/03/09 11:20:08;;;;;;;10.25;5.50;;;;;;;1.39;44.27;97042.13;1751383;81;21149;-81
2021/03/09 11:22:35;;;;;;;8.93;5.75;;;;;;;1.26;44.87;97038.78;1734754;81;21564;-81
2021/03/09 11:25:06;;;;;;;9.78;5.10;;;;;;;1.21;44.76;97037.31;1733139;81;21134;-81
2021/03/09 11:27:34;;;;;;;12.40;6.60;;;;;;;1.18;44.89;97036.72;1740796;81;21483;-81
2021/03/09 11:30:09;;;;;;;9.05;5.37;;;;;;;1.12;45.08;97032.81;1728996;81;21500;-81
2021/03/09 11:36:33;;;;;;;8.90;5.05;;;;;;;1.06;44.34;97035.77;1737508;81;21597;-81
2021/03/09 11:39:00;;;;;;;7.58;4.80;;;;;;;1.15;44.63;97035.84;1700632;84;21526;-81
2021/03/09 11:41:28;;;;;;;10.63;5.42;;;;;;;1.38;44.45;97022.75;1729714;81;21155;-81
2021/03/09 11:43:55;;;;;;;11.48;6.12;;;;;;;1.31;43.58;97022.00;1693283;84;21580;-81
2021/03/09 11:46:22;;;;;;;8.85;4.72;;;;;;;1.31;44.30;97016.78;1728817;82;21265;-81
2021/03/09 11:48:49;;;;;;;10.70;5.30;;;;;;;1.35;44.11;97017.45;1754343;81;21524;-81
2021/03/09 11:51:17;;;;;;;8.28;4.90;;;;;;;1.34;43.71;97005.91;1697157;83;21153;-81
2021/03/09 11:53:45;;;;;;;9.98;5.37;;;;;;;1.29;44.61;97000.02;1713974;83;21143;-81